createdAt,value
2022-10-23T00:02:32.750Z,97582.78
2022-10-23T00:05:18.709Z,97576.53
2022-10-23T00:08:04.507Z,97579.34
2022-10-23T00:10:50.159Z,97575.53
2022-10-23T00:13:35.642Z,97570.63
2022-10-23T00:16:21.324Z,97578.53
2022-10-23T00:19:07.015Z,97571.47
2022-10-23T00:21:52.606Z,97564.78
2022-10-23T00:24:37.817Z,97569.81
2022-10-23T00:27:23.289Z,97579.69
2022-10-23T00:30:09.174Z,97569.16
2022-10-23T00:32:54.653Z,97572.00
2022-10-23T00:35:43.786Z,97570.81
2022-10-23T00:38:29.258Z,97567.16
2022-10-23T00:41:28.580Z,97570.41
2022-10-23T00:44:20.298Z,97565.78
2022-10-23T00:47:05.687Z,97564.56
2022-10-23T00:49:51.331Z,97566.00
2022-10-23T00:52:45.365Z,97568.84
2022-10-23T00:55:33.838Z,97568.59
2022-10-23T00:58:20.536Z,97570.81
2022-10-23T01:01:22.234Z,97574.44
2022-10-23T01:04:08.975Z,97576.06
2022-10-23T01:07:11.614Z,97574.78
2022-10-23T01:10:26.015Z,97586.72
2022-10-23T01:13:16.885Z,97579.59
2022-10-23T01:16:23.776Z,97580.38
2022-10-23T01:20:00.580Z,97583.84
2022-10-23T01:23:07.959Z,97580.22
2022-10-23T01:26:03.689Z,97582.22
2022-10-23T01:29:10.256Z,97584.84
2022-10-23T01:32:08.331Z,97571.47
2022-10-23T01:34:59.643Z,97573.00
2022-10-23T01:38:11.708Z,97576.03
2022-10-23T01:41:03.191Z,97573.13
2022-10-23T01:44:15.741Z,97568.28
2022-10-23T01:47:03.717Z,97559.75
2022-10-23T01:49:54.024Z,97564.00
2022-10-23T01:52:40.523Z,97568.84
2022-10-23T01:55:27.142Z,97570.22
2022-10-23T01:58:16.202Z,97568.34
2022-10-23T02:01:05.490Z,97562.44
2022-10-23T02:03:56.041Z,97562.25
2022-10-23T02:06:42.334Z,97559.81
2022-10-23T02:09:28.244Z,97559.44
2022-10-23T02:12:32.963Z,97560.06
2022-10-23T02:15:18.447Z,97564.97
2022-10-23T02:18:13.885Z,97560.06
2022-10-23T02:21:07.742Z,97562.91
2022-10-23T02:24:03.312Z,97563.09
2022-10-23T02:26:54.082Z,97569.91
2022-10-23T02:29:42.869Z,97552.88
2022-10-23T02:32:29.563Z,97542.72
2022-10-23T02:35:16.611Z,97532.63
2022-10-23T02:38:02.469Z,97532.19
2022-10-23T02:40:50.075Z,97530.31
2022-10-23T02:43:44.336Z,97531.28
2022-10-23T02:46:50.776Z,97537.09
2022-10-23T02:49:45.025Z,97533.03
2022-10-23T02:52:34.256Z,97526.78
2022-10-23T02:55:43.311Z,97523.97
2022-10-23T02:58:33.455Z,97517.91
2022-10-23T03:01:24.804Z,97528.41
2022-10-23T03:04:11.350Z,97518.28
2022-10-23T03:06:57.554Z,97529.97
2022-10-23T03:09:43.041Z,97515.84
2022-10-23T03:12:28.460Z,97512.47
2022-10-23T03:15:13.982Z,97513.91
2022-10-23T03:17:59.376Z,97511.53
2022-10-23T03:20:45.086Z,97513.34
2022-10-23T03:23:30.579Z,97520.94
2022-10-23T03:26:16.543Z,97515.28
2022-10-23T03:29:02.597Z,97518.91
2022-10-23T03:31:47.845Z,97510.84
2022-10-23T03:34:34.794Z,97518.53
2022-10-23T03:37:22.760Z,97509.84
2022-10-23T03:40:09.717Z,97510.41
2022-10-23T03:42:55.470Z,97510.94
2022-10-23T03:45:41.115Z,97509.69
2022-10-23T03:48:26.776Z,97514.50
2022-10-23T03:51:16.731Z,97512.88
2022-10-23T03:54:02.376Z,97502.38
2022-10-23T03:56:47.934Z,97506.00
2022-10-23T03:59:33.449Z,97501.94
2022-10-23T04:02:50.222Z,97506.09
2022-10-23T04:05:36.276Z,97507.13
2022-10-23T04:08:21.594Z,97505.50
2022-10-23T04:11:10.500Z,97505.69
2022-10-23T04:14:03.879Z,97509.13
2022-10-23T04:16:49.375Z,97505.41
2022-10-23T04:19:34.999Z,97501.34
2022-10-23T04:22:23.537Z,97510.22
2022-10-23T04:25:13.231Z,97511.03
2022-10-23T04:27:58.819Z,97509.22
2022-10-23T04:30:44.125Z,97514.66
2022-10-23T04:33:31.230Z,97518.09
2022-10-23T04:36:17.599Z,97509.59
2022-10-23T04:39:03.067Z,97516.66
2022-10-23T04:41:48.655Z,97515.22
2022-10-23T04:44:34.437Z,97510.94
2022-10-23T04:47:20.847Z,97510.94
2022-10-23T04:50:17.025Z,97509.78
2022-10-23T04:53:26.993Z,97509.41
2022-10-23T04:56:32.826Z,97509.03
2022-10-23T04:59:24.923Z,97501.34
2022-10-23T05:02:10.229Z,97498.72
2022-10-23T05:04:55.549Z,97495.09
2022-10-23T05:07:56.272Z,97509.22
2022-10-23T05:10:51.376Z,97510.06
2022-10-23T05:13:37.079Z,97506.59
2022-10-23T05:16:59.312Z,97502.78
2022-10-23T05:19:54.825Z,97498.38
2022-10-23T05:22:42.368Z,97514.28
2022-10-23T05:25:31.376Z,97512.84
2022-10-23T05:28:24.847Z,97506.00
2022-10-23T05:31:10.848Z,97514.03
2022-10-23T05:33:59.924Z,97521.91
2022-10-23T05:36:46.248Z,97525.16
2022-10-23T05:39:33.905Z,97522.16
2022-10-23T05:42:20.992Z,97513.94
2022-10-23T05:45:06.966Z,97511.94
2022-10-23T05:48:10.983Z,97506.25
2022-10-23T05:51:38.807Z,97503.06
2022-10-23T05:54:42.956Z,97505.13
2022-10-23T05:57:41.338Z,97512.63
2022-10-23T06:00:29.361Z,97516.69
2022-10-23T06:03:33.503Z,97513.69
2022-10-23T06:06:19.499Z,97517.78
2022-10-23T06:09:07.346Z,97525.25
2022-10-23T06:11:57.501Z,97519.81
2022-10-23T06:14:42.861Z,97524.72
2022-10-23T06:17:29.263Z,97521.91
2022-10-23T06:20:14.914Z,97510.03
2022-10-23T06:23:01.319Z,97513.91
2022-10-23T06:26:05.722Z,97516.13
2022-10-23T06:28:59.605Z,97517.78
2022-10-23T06:31:45.324Z,97527.72
2022-10-23T06:34:32.466Z,97519.28
2022-10-23T06:37:18.177Z,97521.34
2022-10-23T06:40:24.627Z,97521.78
2022-10-23T06:43:17.275Z,97524.66
2022-10-23T06:46:21.310Z,97527.91
2022-10-23T06:49:41.398Z,97528.16
2022-10-23T06:52:46.006Z,97532.03
2022-10-23T06:55:34.395Z,97533.28
2022-10-23T06:58:21.163Z,97531.91
2022-10-23T07:01:25.333Z,97536.59
2022-10-23T07:04:14.557Z,97537.63
2022-10-23T07:07:01.327Z,97533.66
2022-10-23T07:09:55.548Z,97539.13
2022-10-23T07:13:00.917Z,97542.19
2022-10-23T07:15:54.551Z,97551.53
2022-10-23T07:18:43.664Z,97549.31
2022-10-23T07:21:48.406Z,97547.72
2022-10-23T07:24:57.142Z,97554.25
2022-10-23T07:27:52.014Z,97547.38
2022-10-23T07:30:37.571Z,97549.09
2022-10-23T07:33:23.142Z,97551.53
2022-10-23T07:36:26.348Z,97555.03
2022-10-23T07:39:12.811Z,97540.28
2022-10-23T07:42:05.633Z,97538.31
2022-10-23T07:44:51.324Z,97531.25
2022-10-23T07:47:36.723Z,97521.16
2022-10-23T07:50:23.034Z,97524.88
2022-10-23T07:53:18.302Z,97525.94
2022-10-23T07:56:16.014Z,97537.56
2022-10-23T07:59:33.386Z,97539.41
2022-10-23T08:02:24.555Z,97542.22
2022-10-23T08:05:10.883Z,97534.97
2022-10-23T08:08:07.927Z,97519.19
2022-10-23T08:10:55.571Z,97511.88
2022-10-23T08:13:46.434Z,97504.56
2022-10-23T08:16:34.396Z,97513.31
2022-10-23T08:19:22.801Z,97515.72
2022-10-23T08:22:11.256Z,97506.59
2022-10-23T08:24:56.799Z,97510.03
2022-10-23T08:27:43.348Z,97506.34
2022-10-23T08:30:29.069Z,97502.69
2022-10-23T08:33:16.677Z,97494.75
2022-10-23T08:36:02.722Z,97496.94
2022-10-23T08:38:53.960Z,97493.88
2022-10-23T08:41:47.908Z,97490.19
2022-10-23T08:44:53.652Z,97492.59
2022-10-23T08:47:46.721Z,97503.50
2022-10-23T08:51:16.308Z,97496.97
2022-10-23T08:54:22.316Z,97498.56
2022-10-23T08:57:14.811Z,97492.81
2022-10-23T09:00:07.492Z,97493.97
2022-10-23T09:02:54.615Z,97485.72
2022-10-23T09:05:47.310Z,97495.22
2022-10-23T09:08:54.684Z,97483.13
2022-10-23T09:12:08.411Z,97481.53
2022-10-23T09:15:05.779Z,97478.53
2022-10-23T09:18:15.645Z,97484.69
2022-10-23T09:21:01.168Z,97483.06
2022-10-23T09:23:46.809Z,97477.38
2022-10-23T09:26:32.127Z,97466.78
2022-10-23T09:29:28.195Z,97468.59
2022-10-23T09:32:13.543Z,97460.00
2022-10-23T09:34:59.057Z,97459.38
2022-10-23T09:37:48.549Z,97454.47
2022-10-23T09:40:43.912Z,97449.28
2022-10-23T09:43:29.557Z,97454.75
2022-10-23T09:46:20.441Z,97458.34
2022-10-23T09:49:07.526Z,97455.56
2022-10-23T09:52:02.108Z,97444.22
2022-10-23T09:54:54.991Z,97449.16
2022-10-23T09:57:43.410Z,97445.50
2022-10-23T10:00:29.163Z,97447.44
2022-10-23T10:03:21.281Z,97452.56
2022-10-23T10:06:25.302Z,97446.50
2022-10-23T10:09:16.747Z,97433.44
2022-10-23T10:12:28.141Z,97429.19
2022-10-23T10:15:25.421Z,97431.28
2022-10-23T10:18:41.370Z,97414.00
2022-10-23T10:21:57.334Z,97411.31
2022-10-23T10:24:48.394Z,97410.69
2022-10-23T10:27:45.282Z,97404.47
2022-10-23T10:30:40.427Z,97397.63
2022-10-23T10:33:33.721Z,97390.34
2022-10-23T10:36:55.436Z,97392.88
2022-10-23T10:39:58.769Z,97402.84
2022-10-23T10:42:46.871Z,97396.34
2022-10-23T10:45:44.281Z,97391.09
2022-10-23T10:48:32.560Z,97385.06
2022-10-23T10:51:43.589Z,97388.63
2022-10-23T10:54:41.070Z,97383.34
2022-10-23T10:57:34.514Z,97390.66
2022-10-23T11:00:22.154Z,97380.06
2022-10-23T11:03:45.969Z,97380.94
2022-10-23T11:06:36.643Z,97378.06
2022-10-23T11:09:27.479Z,97370.97
2022-10-23T11:12:19.814Z,97375.00
2022-10-23T11:15:16.127Z,97371.84
2022-10-23T11:18:06.894Z,97362.78
2022-10-23T11:21:28.141Z,97366.03
2022-10-23T11:24:40.167Z,97362.59
2022-10-23T11:27:48.044Z,97359.16
2022-10-23T11:30:47.467Z,97355.66
2022-10-23T11:33:51.648Z,97345.25
2022-10-23T11:36:46.484Z,97339.97
2022-10-23T11:39:35.484Z,97331.13
2022-10-23T11:42:41.364Z,97331.94
2022-10-23T11:45:30.228Z,97321.25
2022-10-23T11:48:23.823Z,97316.19
2022-10-23T11:51:33.688Z,97315.69
2022-10-23T11:54:24.447Z,97311.13
2022-10-23T11:57:17.249Z,97313.28
2022-10-23T12:00:02.637Z,97307.44
2022-10-23T12:02:59.317Z,97302.88
2022-10-23T12:05:45.718Z,97297.25
2022-10-23T12:08:35.384Z,97294.84
2022-10-23T12:11:44.307Z,97280.16
2022-10-23T12:14:57.486Z,97280.16
2022-10-23T12:17:44.680Z,97282.28
2022-10-23T12:20:50.292Z,97284.72
2022-10-23T12:23:45.891Z,97276.69
2022-10-23T12:26:50.706Z,97276.41
2022-10-23T12:29:36.830Z,97268.13
2022-10-23T12:32:43.897Z,97264.34
2022-10-23T12:35:58.296Z,97261.66
2022-10-23T12:38:45.923Z,97265.13
2022-10-23T12:41:34.927Z,97256.53
2022-10-23T12:44:21.573Z,97265.13
2022-10-23T12:47:12.454Z,97261.38
2022-10-23T12:49:58.104Z,97256.00
2022-10-23T12:52:56.087Z,97247.19
2022-10-23T12:58:53.766Z,97241.84
2022-10-23T13:01:40.523Z,97237.25
2022-10-23T13:04:31.347Z,97236.47
2022-10-23T13:07:20.310Z,97227.59
2022-10-23T13:10:07.222Z,97226.75
2022-10-23T13:13:06.959Z,97224.88
2022-10-23T13:15:52.230Z,97220.56
2022-10-23T13:18:41.738Z,97216.81
2022-10-23T13:21:29.237Z,97225.41
2022-10-23T13:24:21.349Z,97229.69
2022-10-23T13:27:32.752Z,97228.03
2022-10-23T13:30:33.689Z,97222.94
2022-10-23T13:33:31.666Z,97221.03
2022-10-23T13:36:17.471Z,97211.97
2022-10-23T13:39:11.937Z,97201.00
2022-10-23T13:42:03.011Z,97204.22
2022-10-23T13:44:48.405Z,97214.66
2022-10-23T13:47:34.016Z,97217.31
2022-10-23T13:50:20.572Z,97215.19
2022-10-23T13:53:12.121Z,97205.81
2022-10-23T13:55:58.770Z,97216.28
2022-10-23T13:58:44.706Z,97208.00
2022-10-23T14:01:35.380Z,97204.78
2022-10-23T14:04:21.377Z,97200.47
2022-10-23T14:07:06.680Z,97201.28
2022-10-23T14:09:52.015Z,97208.78
2022-10-23T14:12:44.617Z,97204.78
2022-10-23T14:15:30.526Z,97203.44
2022-10-23T14:18:15.802Z,97193.28
2022-10-23T14:21:02.600Z,97187.69
2022-10-23T14:23:50.094Z,97176.19
2022-10-23T14:26:35.419Z,97189.59
2022-10-23T14:29:24.092Z,97181.84
2022-10-23T14:32:10.428Z,97183.22
2022-10-23T14:34:55.852Z,97190.72
2022-10-23T14:37:41.064Z,97197.44
2022-10-23T14:40:26.479Z,97191.59
2022-10-23T14:43:11.976Z,97187.06
2022-10-23T14:45:58.117Z,97185.97
2022-10-23T14:48:46.204Z,97190.00
2022-10-23T14:51:33.731Z,97190.25
2022-10-23T14:54:19.270Z,97193.72
2022-10-23T14:57:04.761Z,97181.16
2022-10-23T14:59:50.143Z,97179.56
2022-10-23T15:02:35.525Z,97175.56
2022-10-23T15:05:21.034Z,97175.00
2022-10-23T15:08:06.460Z,97173.41
2022-10-23T15:10:52.013Z,97167.78
2022-10-23T15:13:37.120Z,97160.31
2022-10-23T15:16:23.332Z,97162.44
2022-10-23T15:19:17.145Z,97173.69
2022-10-23T15:22:04.378Z,97173.66
2022-10-23T15:24:49.791Z,97170.97
2022-10-23T15:27:35.346Z,97163.22
2022-10-23T15:30:20.791Z,97164.53
2022-10-23T15:33:06.285Z,97165.84
2022-10-23T15:35:52.962Z,97177.75
2022-10-23T15:38:38.480Z,97171.03
2022-10-23T15:41:32.157Z,97163.25
2022-10-23T15:44:20.040Z,97154.41
2022-10-23T15:47:05.381Z,97167.94
2022-10-23T15:49:50.861Z,97166.84
2022-10-23T15:52:36.282Z,97160.63
2022-10-23T15:55:21.947Z,97158.41
2022-10-23T15:58:07.331Z,97160.19
2022-10-23T16:00:52.827Z,97160.38
2022-10-23T16:03:39.312Z,97156.78
2022-10-23T16:06:24.903Z,97151.09
2022-10-23T16:09:11.137Z,97148.88
2022-10-23T16:11:56.617Z,97146.94
2022-10-23T16:14:42.131Z,97136.75
2022-10-23T16:17:27.436Z,97140.66
2022-10-23T16:20:12.864Z,97139.13
2022-10-23T16:22:58.262Z,97134.28
2022-10-23T16:25:43.815Z,97124.06
2022-10-23T16:28:29.505Z,97115.47
2022-10-23T16:31:19.987Z,97125.50
2022-10-23T16:34:06.930Z,97121.69
2022-10-23T16:36:52.638Z,97123.41
2022-10-23T16:40:05.059Z,97125.41
2022-10-23T16:43:09.877Z,97118.06
2022-10-23T16:46:05.851Z,97118.00
2022-10-23T16:48:52.426Z,97110.19
2022-10-23T16:51:38.023Z,97118.03
2022-10-23T16:54:23.373Z,97126.25
2022-10-23T16:57:08.775Z,97134.59
2022-10-23T16:59:54.558Z,97128.31
2022-10-23T17:02:40.273Z,97128.47
2022-10-23T17:05:25.760Z,97133.69
2022-10-23T17:08:11.267Z,97131.09
2022-10-23T17:11:13.540Z,97128.06
2022-10-23T17:14:02.423Z,97126.84
2022-10-23T17:16:50.011Z,97132.53
2022-10-23T17:19:45.014Z,97137.75
2022-10-23T17:22:31.719Z,97133.16
2022-10-23T17:25:17.177Z,97134.13
2022-10-23T17:28:02.488Z,97136.88
2022-10-23T17:30:48.007Z,97132.94
2022-10-23T17:33:33.606Z,97138.00
2022-10-23T17:36:21.732Z,97137.91
2022-10-23T17:39:08.991Z,97133.88
2022-10-23T17:41:55.700Z,97135.59
2022-10-23T17:44:41.350Z,97132.84
2022-10-23T17:47:26.807Z,97137.81
2022-10-23T17:50:13.143Z,97144.16
2022-10-23T17:52:58.587Z,97139.34
2022-10-23T17:55:44.015Z,97122.28
2022-10-23T17:58:29.947Z,97122.41
2022-10-23T18:01:17.770Z,97119.88
2022-10-23T18:04:05.947Z,97114.47
2022-10-23T18:06:53.176Z,97123.94
2022-10-23T18:09:39.025Z,97118.88
2022-10-23T18:12:24.428Z,97121.97
2022-10-23T18:15:10.207Z,97124.03
2022-10-23T18:17:55.924Z,97116.09
2022-10-23T18:20:41.999Z,97109.75
2022-10-23T18:23:28.873Z,97101.00
2022-10-23T18:26:24.252Z,97097.78
2022-10-23T18:29:10.786Z,97102.50
2022-10-23T18:31:56.025Z,97102.97
2022-10-23T18:34:41.369Z,97096.84
2022-10-23T18:37:28.895Z,97096.84
2022-10-23T18:40:17.137Z,97094.44
2022-10-23T18:43:03.064Z,97092.38
2022-10-23T18:45:48.314Z,97093.88
2022-10-23T18:48:34.145Z,97086.41
2022-10-23T18:51:22.800Z,97079.13
2022-10-23T18:54:14.443Z,97076.38
2022-10-23T18:56:59.867Z,97068.09
2022-10-23T18:59:45.330Z,97067.31
2022-10-23T19:02:30.871Z,97067.31
2022-10-23T19:05:16.529Z,97066.47
2022-10-23T19:08:02.133Z,97065.34
2022-10-23T19:10:48.967Z,97064.41
2022-10-23T19:13:39.014Z,97065.91
2022-10-23T19:16:33.725Z,97066.16
2022-10-23T19:19:22.980Z,97058.41
2022-10-23T19:22:09.982Z,97059.69
2022-10-23T19:25:00.014Z,97067.03
2022-10-23T19:27:47.347Z,97068.09
2022-10-23T19:30:32.700Z,97067.28
2022-10-23T19:33:18.023Z,97066.50
2022-10-23T19:36:05.475Z,97063.84
2022-10-23T19:38:51.846Z,97049.56
2022-10-23T19:41:37.449Z,97051.88
2022-10-23T19:44:23.211Z,97050.25
2022-10-23T19:47:09.044Z,97053.94
2022-10-23T19:49:54.289Z,97066.38
2022-10-23T19:52:39.606Z,97050.94
2022-10-23T19:55:25.348Z,97035.53
2022-10-23T19:58:11.248Z,97031.28
2022-10-23T20:00:56.678Z,97018.03
2022-10-23T20:03:42.787Z,97023.19
2022-10-23T20:06:31.285Z,97024.69
2022-10-23T20:09:17.102Z,97036.78
2022-10-23T20:12:04.072Z,97038.63
2022-10-23T20:14:50.834Z,97035.41
2022-10-23T20:17:36.487Z,97033.78
2022-10-23T20:20:21.799Z,97025.25
2022-10-23T20:23:07.507Z,97020.78
2022-10-23T20:25:52.940Z,97006.28
2022-10-23T20:28:39.266Z,97006.84
2022-10-23T20:31:27.485Z,96999.50
2022-10-23T20:34:13.492Z,96995.00
2022-10-23T20:36:59.352Z,97012.50
2022-10-23T20:39:45.382Z,97018.81
2022-10-23T20:42:30.611Z,97035.75
2022-10-23T20:45:16.128Z,97028.03
2022-10-23T20:48:01.416Z,97025.63
2022-10-23T20:50:47.012Z,97021.34
2022-10-23T20:53:34.009Z,97022.38
2022-10-23T20:56:30.340Z,97029.28
2022-10-23T20:59:18.318Z,97028.84
2022-10-23T21:02:04.000Z,97033.31
2022-10-23T21:04:50.530Z,97030.13
2022-10-23T21:07:36.139Z,97035.63
2022-10-23T21:10:21.527Z,97040.69
2022-10-23T21:13:07.196Z,97049.44
2022-10-23T21:15:52.660Z,97037.81
2022-10-23T21:18:46.108Z,97054.28
2022-10-23T21:21:33.226Z,97074.97
2022-10-23T21:24:18.836Z,97064.97
2022-10-23T21:27:04.045Z,97078.78
2022-10-23T21:29:49.704Z,97076.28
2022-10-23T21:32:34.911Z,97093.88
2022-10-23T21:35:20.433Z,97091.34
2022-10-23T21:38:05.860Z,97087.78
2022-10-23T21:40:51.455Z,97100.56
2022-10-23T21:43:37.347Z,97094.22
2022-10-23T21:46:24.731Z,97087.34
2022-10-23T21:49:11.746Z,97094.22
2022-10-23T21:51:57.109Z,97085.25
2022-10-23T21:54:42.433Z,97089.50
2022-10-23T21:57:31.420Z,97086.63
2022-10-23T22:00:17.227Z,97095.94
2022-10-23T22:03:02.678Z,97107.94
2022-10-23T22:05:48.105Z,97112.78
2022-10-23T22:08:33.739Z,97117.81
2022-10-23T22:11:19.308Z,97115.53
2022-10-23T22:14:05.138Z,97130.75
2022-10-23T22:16:50.367Z,97141.69
2022-10-23T22:19:35.908Z,97133.50
2022-10-23T22:22:21.431Z,97127.16
2022-10-23T22:25:07.429Z,97127.16
2022-10-23T22:27:52.962Z,97125.34
2022-10-23T22:30:38.397Z,97132.00
2022-10-23T22:33:23.666Z,97138.09
2022-10-23T22:36:09.287Z,97141.78
2022-10-23T22:38:55.802Z,97157.44
2022-10-23T22:41:43.388Z,97167.84
2022-10-23T22:44:29.462Z,97173.94
2022-10-23T22:47:14.953Z,97167.84
2022-10-23T22:50:00.334Z,97177.16
2022-10-23T22:52:46.077Z,97186.94
2022-10-23T22:55:31.743Z,97176.13
2022-10-23T22:58:17.236Z,97182.00
2022-10-23T23:01:07.818Z,97184.44
2022-10-23T23:03:54.151Z,97197.44
2022-10-23T23:06:39.652Z,97189.50
2022-10-23T23:09:25.001Z,97185.56
2022-10-23T23:12:12.421Z,97196.75
2022-10-23T23:15:00.337Z,97203.44
2022-10-23T23:17:45.986Z,97202.84
2022-10-23T23:20:31.673Z,97208.75
2022-10-23T23:23:18.012Z,97196.03
2022-10-23T23:26:06.380Z,97202.16
2022-10-23T23:28:54.023Z,97212.75
2022-10-23T23:31:39.669Z,97230.50
2022-10-23T23:34:24.922Z,97246.41
2022-10-23T23:37:10.561Z,97236.38
2022-10-23T23:39:55.988Z,97242.28
2022-10-23T23:42:41.548Z,97236.50
2022-10-23T23:45:27.618Z,97249.31
2022-10-23T23:48:12.720Z,97254.13
2022-10-23T23:50:58.189Z,97260.00
2022-10-23T23:53:43.879Z,97266.13
2022-10-23T23:56:29.233Z,97274.88
2022-10-23T23:59:14.786Z,97284.47
